Aviation Digital Data Service (ADDS)

Output produced by METARs form (1323 UTC 21 August 2019)
found at http://www.aviationweather.gov/metar/data/
 
TAF EGCC 211103Z 2112/2218 19009KT 9999 SCT030 
     TEMPO 2112/2117 6000 SHRA 
     TEMPO 2200/2212 7000 -RA 
     PROB30 
     TEMPO 2205/2209 BKN010 
     PROB30 
     TEMPO 2209/2215 23015G25KT